Time;durP1;ratioP1;P1;durP2;ratioP2;P2;SDS_P1;SDS_P2;PMS_P1;PMS_P2;Temp;Humidity;BMP_temperature;BMP_pressure;BME280_temperature;BME280_humidity;BME280_pressure;Samples;Min_cycle;Max_cycle;Signal;HPM_P1;HPM_P2
2023/10/17 00:00:51;;;;;;;16.20;4.25;;;;;;;6.36;100.00;101954.09;5050031;28;20044;-66
2023/10/17 00:03:17;;;;;;;18.25;4.63;;;;;;;6.39;100.00;101955.50;5050587;28;20021;-66
2023/10/17 00:05:42;;;;;;;15.52;4.40;;;;;;;6.39;100.00;101955.50;5050283;28;20037;-66
2023/10/17 00:08:09;;;;;;;18.83;4.78;;;;;;;6.38;100.00;101956.59;5050868;28;20037;-67
2023/10/17 00:10:44;;;;;;;17.25;4.70;;;;;;;6.39;100.00;101952.75;5050268;28;20512;-66
2023/10/17 00:15:53;;;;;;;;;;;;;;;6.42;100.00;101949.53;5050826;28;20044;-66
2023/10/17 00:18:20;;;;;;;17.87;4.50;;;;;;;6.40;100.00;101947.03;5050310;28;20261;-67
2023/10/17 00:20:50;;;;;;;15.98;4.82;;;;;;;6.37;100.00;101941.22;5050020;28;20279;-66
2023/10/17 00:23:20;;;;;;;17.50;4.75;;;;;;;6.37;100.00;101944.78;5031771;28;20140;-67
2023/10/17 00:25:46;;;;;;;16.58;5.03;;;;;;;6.37;100.00;101942.03;5049956;28;20361;-67
2023/10/17 00:28:13;;;;;;;16.98;4.88;;;;;;;6.37;100.00;101946.72;5050033;28;20495;-67
2023/10/17 00:30:38;;;;;;;16.67;5.03;;;;;;;6.36;100.00;101947.78;5049781;28;20029;-66
2023/10/17 00:33:09;;;;;;;17.85;4.85;;;;;;;6.36;100.00;101950.53;5049387;28;20119;-67
2023/10/17 00:35:38;;;;;;;17.33;5.20;;;;;;;6.36;100.00;101942.28;5049749;28;20361;-68
2023/10/17 00:38:07;;;;;;;17.63;4.93;;;;;;;6.36;100.00;101939.53;5049656;28;20037;-67
2023/10/17 00:40:56;;;;;;;17.73;5.05;;;;;;;6.35;100.00;101932.38;5049901;28;20035;-67
2023/10/17 00:43:23;;;;;;;16.80;5.28;;;;;;;6.31;100.00;101932.06;5049564;28;20028;-68
2023/10/17 00:45:48;;;;;;;18.02;5.30;;;;;;;6.33;100.00;101938.09;5049547;28;20089;-67
2023/10/17 00:48:18;;;;;;;17.05;4.88;;;;;;;6.30;100.00;101930.38;5049765;28;20413;-68
2023/10/17 00:50:49;;;;;;;18.20;5.15;;;;;;;6.30;100.00;101924.88;5049355;28;20040;-67
2023/10/17 00:53:15;;;;;;;16.98;5.35;;;;;;;6.28;100.00;101921.53;5031334;28;20040;-67
2023/10/17 00:55:50;;;;;;;19.50;4.80;;;;;;;6.29;100.00;101917.72;5049315;28;20033;-68
2023/10/17 00:58:18;;;;;;;16.40;5.63;;;;;;;6.28;100.00;101916.06;5049234;28;20055;-67
2023/10/17 01:00:49;;;;;;;16.83;4.75;;;;;;;6.28;100.00;101927.03;5049295;28;20025;-67
2023/10/17 01:03:16;;;;;;;20.80;5.35;;;;;;;6.27;100.00;101914.38;5049208;28;20083;-67
2023/10/17 01:06:13;;;;;;;17.23;4.82;;;;;;;6.27;100.00;101917.13;5049389;28;20448;-67
2023/10/17 01:08:50;;;;;;;16.65;5.55;;;;;;;6.27;100.00;101919.88;5048657;28;20045;-66
2023/10/17 01:11:21;;;;;;;18.42;5.05;;;;;;;6.26;100.00;101923.69;5048941;28;20392;-66
2023/10/17 01:13:53;;;;;;;16.80;5.22;;;;;;;6.26;100.00;101917.38;5048986;28;20028;-67
2023/10/17 01:16:20;;;;;;;16.00;4.70;;;;;;;6.23;100.00;101916.81;5049000;28;20047;-67
2023/10/17 01:18:45;;;;;;;18.98;5.30;;;;;;;6.23;100.00;101927.78;5048947;28;20039;-67
2023/10/17 01:21:12;;;;;;;17.83;4.65;;;;;;;6.21;100.00;101926.38;5048634;28;20033;-67
2023/10/17 01:23:38;;;;;;;17.02;4.95;;;;;;;6.22;100.00;101939.03;5048797;28;20045;-66
2023/10/17 01:26:08;;;;;;;17.75;4.95;;;;;;;6.20;100.00;101933.78;5049136;28;20503;-66
2023/10/17 01:28:34;;;;;;;16.63;5.07;;;;;;;6.21;100.00;101932.69;5049163;28;20036;-67
2023/10/17 01:31:01;;;;;;;18.85;5.07;;;;;;;6.21;100.00;101932.69;5048957;28;20025;-67
2023/10/17 01:33:29;;;;;;;17.48;4.82;;;;;;;6.18;100.00;101924.97;5048791;28;20457;-67
2023/10/17 01:36:01;;;;;;;17.25;5.13;;;;;;;6.17;100.00;101928.81;5030361;28;20041;-66
2023/10/17 01:38:28;;;;;;;16.52;5.07;;;;;;;6.16;100.00;101920.78;5048784;28;20203;-67
2023/10/17 01:40:59;;;;;;;16.33;4.85;;;;;;;6.15;100.00;101910.88;5048711;28;20117;-66
2023/10/17 01:43:27;;;;;;;16.08;4.35;;;;;;;6.15;100.00;101908.97;5049559;28;20029;-66
2023/10/17 01:45:56;;;;;;;16.52;4.70;;;;;;;6.15;100.00;101908.97;5052942;28;20115;-67
2023/10/17 01:48:23;;;;;;;17.95;5.28;;;;;;;6.14;100.00;101896.31;5052589;28;20029;-67
2023/10/17 01:50:49;;;;;;;17.48;5.50;;;;;;;6.15;100.00;101897.13;5052809;28;20108;-67
2023/10/17 01:53:16;;;;;;;17.33;5.07;;;;;;;6.15;100.00;101900.75;5052330;28;20361;-67
2023/10/17 01:55:45;;;;;;;17.73;5.13;;;;;;;6.13;100.00;101893.84;5052185;28;20029;-67
2023/10/17 01:58:15;;;;;;;18.05;5.45;;;;;;;6.13;100.00;101891.91;5052206;28;20106;-66
2023/10/17 02:00:42;;;;;;;15.82;5.07;;;;;;;6.13;100.00;101893.84;5052562;28;20132;-66
2023/10/17 02:03:07;;;;;;;15.63;4.50;;;;;;;6.09;100.00;101886.09;5034103;28;20021;-67
2023/10/17 02:05:34;;;;;;;16.13;4.80;;;;;;;6.10;100.00;101875.91;5052521;28;20437;-67
2023/10/17 02:08:00;;;;;;;16.73;5.13;;;;;;;6.09;100.00;101879.78;5052062;28;20389;-67
2023/10/17 02:10:28;;;;;;;17.25;4.85;;;;;;;6.06;100.00;101864.59;5052139;28;20086;-67
2023/10/17 02:12:54;;;;;;;16.42;5.10;;;;;;;6.04;100.00;101869.53;5052112;28;20180;-66
2023/10/17 02:15:19;;;;;;;17.48;4.97;;;;;;;6.03;100.00;101872.50;5052238;28;20029;-66
2023/10/17 02:17:51;;;;;;;15.90;4.82;;;;;;;6.01;100.00;101872.78;5052357;28;20069;-66
2023/10/17 02:22:58;;;;;;;16.05;5.13;;;;;;;5.99;100.00;101863.09;5052115;28;20114;-67
2023/10/17 02:25:28;;;;;;;17.02;5.30;;;;;;;5.96;100.00;101861.66;5052084;28;20052;-67
2023/10/17 02:27:53;;;;;;;17.55;4.88;;;;;;;5.97;100.00;101865.25;5051953;28;20040;-67
2023/10/17 02:30:20;;;;;;;19.55;5.28;;;;;;;5.96;100.00;101867.16;5052049;28;20115;-66
2023/10/17 02:32:52;;;;;;;17.65;5.63;;;;;;;5.96;100.00;101867.16;5052286;28;20052;-66
2023/10/17 02:35:20;;;;;;;19.60;6.18;;;;;;;5.93;100.00;101870.41;5052030;28;20040;-67
2023/10/17 02:37:47;;;;;;;18.05;5.55;;;;;;;5.90;100.00;101877.22;5052122;28;20033;-67
2023/10/17 02:40:23;;;;;;;17.98;5.72;;;;;;;5.89;100.00;101861.00;5051716;28;20380;-67
2023/10/17 02:42:48;;;;;;;18.05;5.90;;;;;;;5.88;100.00;101867.56;5051728;28;20419;-67
2023/10/17 02:45:24;;;;;;;19.25;6.45;;;;;;;5.85;100.00;101871.66;5051295;28;20086;-67
2023/10/17 02:47:52;;;;;;;19.67;6.20;;;;;;;5.84;100.00;101869.16;5051585;28;20084;-67
2023/10/17 02:50:22;;;;;;;20.45;7.22;;;;;;;5.83;100.00;101868.31;5051359;28;20033;-66
2023/10/17 02:52:51;;;;;;;19.73;6.80;;;;;;;5.81;100.00;101861.41;5051391;28;20206;-67
2023/10/17 02:55:23;;;;;;;20.92;6.82;;;;;;;5.80;100.00;101866.09;5051204;28;20032;-66
2023/10/17 02:57:50;;;;;;;19.63;7.30;;;;;;;5.82;100.00;101863.06;5051207;28;20076;-67
2023/10/17 03:00:33;;;;;;;19.50;6.75;;;;;;;5.80;100.00;101870.72;5050938;28;20025;-66
2023/10/17 03:02:59;;;;;;;20.65;7.03;;;;;;;5.80;100.00;101857.84;5050041;28;20033;-66
2023/10/17 03:05:26;;;;;;;20.70;7.68;;;;;;;5.76;100.00;101857.47;5050547;28;20048;-66
2023/10/17 03:07:51;;;;;;;22.02;7.78;;;;;;;5.77;100.00;101855.59;5050992;28;20128;-66
2023/10/17 03:10:36;;;;;;;21.55;8.43;;;;;;;5.76;100.00;101854.75;5050680;28;20037;-66
2023/10/17 03:13:14;;;;;;;21.55;8.07;;;;;;;5.75;100.00;101861.34;5050989;28;20118;-66
2023/10/17 03:15:46;;;;;;;21.70;7.78;;;;;;;5.75;100.00;101863.25;5051066;28;20481;-67
2023/10/17 03:18:16;;;;;;;21.70;8.45;;;;;;;5.76;100.00;101864.91;5051095;28;20028;-67
2023/10/17 03:20:53;;;;;;;22.35;8.18;;;;;;;5.74;100.00;101861.56;5051048;28;20033;-67
2023/10/17 03:23:28;;;;;;;23.27;8.38;;;;;;;5.75;100.00;101858.59;5051024;28;20515;-67
2023/10/17 03:26:03;;;;;;;22.95;8.93;;;;;;;5.75;100.00;101855.00;5050777;28;20029;-67
2023/10/17 03:28:32;;;;;;;23.40;9.18;;;;;;;5.76;100.00;101856.66;5050709;28;20465;-67
2023/10/17 03:30:58;;;;;;;23.15;8.80;;;;;;;5.76;100.00;101860.22;5050558;28;20047;-67
2023/10/17 03:33:26;;;;;;;23.42;9.32;;;;;;;5.75;100.00;101860.50;5050412;28;20053;-67
2023/10/17 03:38:31;;;;;;;26.88;10.52;;;;;;;5.73;100.00;101868.97;5050202;28;20052;-67
2023/10/17 03:41:15;;;;;;;22.35;9.82;;;;;;;5.73;100.00;101873.63;5050294;28;20021;-66
2023/10/17 03:43:50;;;;;;;24.48;9.95;;;;;;;5.73;100.00;101870.88;5050368;28;20032;-67
2023/10/17 03:46:15;;;;;;;24.85;10.27;;;;;;;5.73;100.00;101871.72;5050349;28;20075;-67
2023/10/17 03:48:49;;;;;;;23.63;10.38;;;;;;;5.73;100.00;101874.47;5049931;28;20060;-67
2023/10/17 03:51:21;;;;;;;24.80;9.88;;;;;;;5.73;100.00;101877.22;5049871;28;20050;-67
2023/10/17 03:53:49;;;;;;;24.55;10.48;;;;;;;5.73;100.00;101871.72;5050150;28;20048;-67
2023/10/17 03:57:02;;;;;;;25.35;10.60;;;;;;;5.73;100.00;101866.25;5050061;28;20124;-66
2023/10/17 04:01:47;;;;;;;26.40;11.05;;;;;;;5.74;100.00;101856.06;5050044;28;20048;-67
2023/10/17 04:04:12;;;;;;;23.35;9.80;;;;;;;5.74;100.00;101858.81;5050175;28;20067;-67
2023/10/17 04:06:41;;;;;;;24.17;10.60;;;;;;;5.74;100.00;101864.31;5049290;28;20384;-67
2023/10/17 04:09:18;;;;;;;28.05;11.68;;;;;;;5.74;100.00;101867.06;5049638;28;20028;-67
2023/10/17 04:11:46;;;;;;;25.88;11.38;;;;;;;5.73;100.00;101862.66;5049791;28;20085;-66
2023/10/17 04:14:12;;;;;;;26.08;11.63;;;;;;;5.73;100.00;101860.75;5049587;28;20327;-67
2023/10/17 04:16:44;;;;;;;24.35;11.63;;;;;;;5.73;100.00;101868.97;5049760;28;20027;-67
2023/10/17 04:19:18;;;;;;;25.63;11.80;;;;;;;5.73;100.00;101862.66;5049701;28;20025;-67
2023/10/17 04:24:27;;;;;;;27.10;11.82;;;;;;;5.72;100.00;101874.72;5049369;28;20068;-67
2023/10/17 04:27:06;;;;;;;25.17;11.50;;;;;;;5.70;100.00;101865.91;5049854;28;20499;-67
2023/10/17 04:29:35;;;;;;;26.13;12.23;;;;;;;5.72;100.00;101863.72;5049564;28;20087;-67
2023/10/17 04:32:09;;;;;;;28.10;12.20;;;;;;;5.72;100.00;101864.56;5049147;28;20025;-67
2023/10/17 04:34:35;;;;;;;26.00;12.75;;;;;;;5.70;100.00;101861.25;5049204;28;20123;-66
2023/10/17 04:37:03;;;;;;;28.85;13.60;;;;;;;5.70;100.00;101868.66;5049016;28;20051;-66
2023/10/17 04:39:35;;;;;;;28.45;13.07;;;;;;;5.71;100.00;101873.88;5049179;28;20040;-67
2023/10/17 04:42:05;;;;;;;27.48;12.50;;;;;;;5.72;100.00;101888.44;5048893;28;20511;-67
2023/10/17 04:44:50;;;;;;;26.92;13.10;;;;;;;5.71;100.00;101892.28;5049062;28;20029;-67
2023/10/17 04:47:26;;;;;;;29.48;13.15;;;;;;;5.71;100.00;101886.78;5049398;28;20487;-67
2023/10/17 04:49:54;;;;;;;26.83;12.73;;;;;;;5.71;100.00;101887.63;5049360;28;20369;-67
2023/10/17 04:52:22;;;;;;;30.23;13.75;;;;;;;5.71;100.00;101878.56;5031480;28;20140;-66
2023/10/17 04:54:52;;;;;;;30.00;13.95;;;;;;;5.72;100.00;101871.97;5049741;28;20021;-67
2023/10/17 04:57:19;;;;;;;27.20;13.00;;;;;;;5.72;100.00;101864.56;5049536;28;20032;-67
2023/10/17 06:18:38;;;;;;;27.85;13.90;;;;;;;5.61;100.00;101851.75;5052042;28;20051;-66
2023/10/17 06:34:20;;;;;;;28.15;12.65;;;;;;;5.65;100.00;101863.06;5051632;28;20120;-66
2023/10/17 06:36:50;;;;;;;28.48;12.95;;;;;;;5.67;100.00;101869.13;5051873;28;20045;-66
2023/10/17 06:39:17;;;;;;;29.13;14.18;;;;;;;5.67;100.00;101871.88;5051983;28;20381;-66
2023/10/17 06:41:46;;;;;;;27.90;13.52;;;;;;;5.68;100.00;101870.81;5051444;28;20029;-66
2023/10/17 06:44:21;;;;;;;27.88;13.88;;;;;;;5.70;100.00;101869.47;5051405;28;20036;-67
2023/10/17 06:54:41;;;;;;;27.80;13.68;;;;;;;5.74;100.00;101870.66;5051384;28;20373;-67
2023/10/17 06:57:19;;;;;;;28.77;14.00;;;;;;;5.77;100.00;101872.88;5051693;28;20025;-67
2023/10/17 06:59:53;;;;;;;26.75;13.15;;;;;;;5.78;100.00;101866.31;5051617;28;20162;-67
2023/10/17 07:02:27;;;;;;;30.05;13.98;;;;;;;5.80;100.00;101863.34;5051574;28;20087;-67
2023/10/17 07:04:55;;;;;;;30.15;13.98;;;;;;;5.80;100.00;101870.72;5051199;28;20047;-67
2023/10/17 07:07:22;;;;;;;27.42;13.38;;;;;;;5.81;100.00;101881.44;5051186;28;20084;-67
2023/10/17 07:12:38;;;;;;;29.40;15.00;;;;;;;5.83;100.00;101875.72;5051179;28;20054;-67
2023/10/17 07:15:12;;;;;;;27.35;14.48;;;;;;;5.81;100.00;101867.72;5051128;28;20186;-67
2023/10/17 07:17:43;;;;;;;26.42;12.98;;;;;;;5.83;100.00;101862.00;5050815;28;20029;-67
2023/10/17 07:20:30;;;;;;;29.33;14.57;;;;;;;5.84;100.00;101863.66;5051027;28;20116;-67
2023/10/17 07:22:57;;;;;;;28.45;13.77;;;;;;;5.84;100.00;101864.50;5050596;28;20504;-67
2023/10/17 07:25:22;;;;;;;30.95;14.82;;;;;;;5.83;100.00;101873.00;5050663;28;20021;-67
2023/10/17 07:27:49;;;;;;;28.30;14.27;;;;;;;5.82;100.00;101877.63;5050569;28;20100;-67
2023/10/17 07:30:24;;;;;;;30.38;14.60;;;;;;;5.83;100.00;101871.06;5050929;28;20028;-67
2023/10/17 07:32:54;;;;;;;29.27;14.40;;;;;;;5.82;100.00;101880.38;5050784;28;20029;-67
2023/10/17 07:35:30;;;;;;;29.60;14.27;;;;;;;5.78;100.00;101871.00;5050883;28;20456;-67
2023/10/17 07:37:55;;;;;;;30.67;14.52;;;;;;;5.82;100.00;101871.31;5032705;28;20071;-67
2023/10/17 07:40:34;;;;;;;29.58;14.43;;;;;;;5.81;100.00;101867.72;5050681;28;20056;-67
2023/10/17 07:43:00;;;;;;;30.75;15.98;;;;;;;5.81;100.00;101866.91;5050486;28;20025;-66
2023/10/17 07:45:37;;;;;;;30.10;14.18;;;;;;;5.75;100.00;101869.56;5050564;28;20040;-67
2023/10/17 07:48:02;;;;;;;30.75;15.27;;;;;;;5.78;100.00;101871.81;5050920;28;20075;-67
2023/10/17 07:50:28;;;;;;;28.58;15.15;;;;;;;5.77;100.00;101877.56;5050542;28;20020;-67
2023/10/17 07:53:05;;;;;;;30.13;15.15;;;;;;;5.77;100.00;101874.81;5050395;28;20033;-67
2023/10/17 07:55:36;;;;;;;30.42;16.02;;;;;;;5.75;100.00;101872.31;5050640;28;20108;-67
2023/10/17 07:58:09;;;;;;;29.20;15.05;;;;;;;5.75;100.00;101871.47;5050563;28;20116;-67
2023/10/17 08:00:38;;;;;;;32.03;15.70;;;;;;;5.76;100.00;101870.41;5050554;28;20031;-67
2023/10/17 08:03:27;;;;;;;34.20;15.90;;;;;;;5.76;100.00;101873.13;5050604;28;20028;-67
2023/10/17 08:06:05;;;;;;;30.40;15.52;;;;;;;5.86;100.00;101864.22;5051017;28;20025;-68
2023/10/17 08:08:36;;;;;;;31.55;15.35;;;;;;;5.93;100.00;101867.66;5050652;28;20033;-67
2023/10/17 08:11:07;;;;;;;30.48;15.95;;;;;;;5.98;100.00;101855.94;5050601;28;20033;-67
2023/10/17 08:13:33;;;;;;;32.35;16.60;;;;;;;6.07;100.00;101849.78;5050345;28;20545;-67
2023/10/17 08:16:23;;;;;;;31.75;17.40;;;;;;;6.17;100.00;101859.25;5049920;28;20021;-66
2023/10/17 08:18:55;;;;;;;31.42;15.18;;;;;;;6.22;100.00;101851.94;5050176;28;20029;-66
2023/10/17 08:24:00;;;;;;;30.73;15.98;;;;;;;6.40;100.00;101856.31;5050042;28;20055;-67
2023/10/17 08:26:31;;;;;;;30.00;14.98;;;;;;;6.49;100.00;101859.44;5050392;28;20035;-67
2023/10/17 08:28:57;;;;;;;30.05;15.38;;;;;;;6.55;100.00;101866.72;5050536;28;20029;-66
2023/10/17 08:34:12;;;;;;;28.52;13.75;;;;;;;6.77;100.00;101860.38;5050127;28;20190;-66
2023/10/17 08:41:57;;;;;;;27.67;13.60;;;;;;;7.02;100.00;101861.78;5050659;28;20119;-67
2023/10/17 08:44:28;;;;;;;25.90;12.35;;;;;;;7.09;100.00;101854.16;5050377;28;20031;-66
2023/10/17 08:46:55;;;;;;;25.48;13.00;;;;;;;7.17;100.00;101863.91;5050385;28;20029;-67
2023/10/17 08:49:21;;;;;;;27.63;13.77;;;;;;;7.26;100.00;101859.59;5050153;28;20037;-67
2023/10/17 08:51:48;;;;;;;27.02;13.57;;;;;;;7.39;100.00;101865.75;5050093;28;20035;-68
2023/10/17 08:54:14;;;;;;;26.45;12.93;;;;;;;7.45;100.00;101862.78;5050249;28;20029;-66
2023/10/17 08:56:42;;;;;;;25.08;12.25;;;;;;;7.53;100.00;101856.00;5050317;28;20032;-67
2023/10/17 08:59:09;;;;;;;28.25;12.60;;;;;;;7.61;100.00;101857.44;5050192;28;20051;-66
2023/10/17 09:01:36;;;;;;;26.33;12.02;;;;;;;7.68;100.00;101860.81;5049867;28;20108;-66
2023/10/17 09:04:04;;;;;;;25.88;11.35;;;;;;;7.75;100.00;101864.19;5049998;28;20392;-67
2023/10/17 09:06:32;;;;;;;24.88;12.23;;;;;;;7.81;100.00;101848.53;5049975;28;20052;-66
2023/10/17 09:11:41;;;;;;;26.92;11.60;;;;;;;7.95;100.00;101866.28;5050076;28;20037;-67
2023/10/17 09:14:15;;;;;;;24.75;11.07;;;;;;;8.03;100.00;101853.13;5032024;28;20044;-66
2023/10/17 09:16:50;;;;;;;23.65;9.77;;;;;;;8.09;100.00;101852.06;5050213;28;20039;-66
2023/10/17 09:19:16;;;;;;;23.90;9.68;;;;;;;8.18;100.00;101852.38;5050195;28;20104;-66
2023/10/17 09:21:47;;;;;;;23.40;10.70;;;;;;;8.23;100.00;101864.25;5027468;28;20061;-67
2023/10/17 09:24:37;;;;;;;21.27;9.15;;;;;;;8.32;100.00;101874.78;5030013;28;20046;-66
2023/10/17 09:27:06;;;;;;;22.10;9.18;;;;;;;8.35;100.00;101866.00;5029456;28;20025;-66
2023/10/17 09:29:41;;;;;;;23.15;8.95;;;;;;;8.43;100.00;101873.78;5029725;28;20038;-66
2023/10/17 09:32:08;;;;;;;22.95;9.20;;;;;;;8.51;100.00;101861.44;5029578;28;20033;-67
2023/10/17 09:34:34;;;;;;;21.33;8.85;;;;;;;8.56;100.00;101872.50;5029581;28;20128;-67
2023/10/17 09:37:04;;;;;;;20.67;7.57;;;;;;;8.59;100.00;101866.44;5012920;28;20142;-67
2023/10/17 09:39:33;;;;;;;22.83;8.63;;;;;;;8.64;100.00;101868.41;5009411;28;20034;-67
2023/10/17 09:41:58;;;;;;;20.08;7.85;;;;;;;8.66;100.00;101869.78;5009535;28;20121;-66
2023/10/17 09:44:23;;;;;;;21.77;8.10;;;;;;;8.72;100.00;101867.91;5009611;28;20168;-66
2023/10/17 09:46:55;;;;;;;21.38;8.30;;;;;;;8.71;100.00;101867.06;5009962;28;20484;-67
2023/10/17 09:49:30;;;;;;;21.60;8.55;;;;;;;8.82;100.00;101875.41;5009455;28;20034;-65
2023/10/17 09:51:56;;;;;;;22.02;8.10;;;;;;;8.87;100.00;101870.75;5009370;28;20072;-66
2023/10/17 09:54:22;;;;;;;21.70;8.10;;;;;;;8.92;100.00;101880.13;5009104;28;20144;-66
2023/10/17 09:56:49;;;;;;;20.60;7.90;;;;;;;8.97;100.00;101880.97;5009103;28;20065;-65
2023/10/17 09:59:20;;;;;;;21.83;8.07;;;;;;;9.02;100.00;101877.41;5009316;28;20045;-66
2023/10/17 10:01:49;;;;;;;21.00;7.97;;;;;;;9.04;100.00;101877.97;4991316;28;20378;-66
2023/10/17 10:04:17;;;;;;;20.77;7.38;;;;;;;9.10;100.00;101876.88;5009881;28;20029;-66
2023/10/17 10:06:42;;;;;;;21.35;8.40;;;;;;;9.16;100.00;101878.53;5012479;28;20042;-66
2023/10/17 10:09:13;;;;;;;20.48;7.50;;;;;;;9.21;100.00;101870.28;5012369;28;20029;-66
2023/10/17 10:11:47;;;;;;;21.05;7.85;;;;;;;9.25;100.00;101856.78;5012617;28;20033;-66
2023/10/17 10:14:13;;;;;;;19.13;7.07;;;;;;;9.21;100.00;101848.22;5012587;28;20506;-67
2023/10/17 10:16:57;;;;;;;19.85;6.55;;;;;;;9.31;100.00;101863.13;5012345;28;20102;-67
2023/10/17 10:19:23;;;;;;;19.23;6.90;;;;;;;9.35;100.00;101861.50;5012751;28;20029;-66
2023/10/17 10:21:58;;;;;;;20.75;6.72;;;;;;;9.40;100.00;101857.94;5012679;28;20046;-66
2023/10/17 10:24:46;;;;;;;18.60;6.57;;;;;;;9.49;100.00;101853.53;5012740;28;20056;-67
2023/10/17 10:27:24;;;;;;;20.63;7.55;;;;;;;9.53;100.00;101851.84;5012634;28;20038;-66
2023/10/17 10:29:55;;;;;;;20.35;7.25;;;;;;;9.56;100.00;101842.19;5012385;28;20110;-66
2023/10/17 10:32:35;;;;;;;21.80;7.43;;;;;;;9.58;100.00;101838.06;5012806;28;20054;-67
2023/10/17 10:35:08;;;;;;;20.65;7.40;;;;;;;9.65;100.00;101849.66;5012285;28;20028;-67
2023/10/17 10:37:52;;;;;;;19.40;6.68;;;;;;;9.74;100.00;101847.16;5012471;28;20030;-67
2023/10/17 10:40:17;;;;;;;;;;;;;;;9.81;100.00;101844.13;5013120;28;20033;-67
2023/10/17 10:42:50;;;;;;;18.40;6.40;;;;;;;9.83;99.77;101839.97;5012150;28;20003;-67
2023/10/17 10:45:35;;;;;;;17.88;5.97;;;;;;;9.92;100.00;101837.50;5012376;28;20291;-67
2023/10/17 10:48:04;;;;;;;18.88;6.57;;;;;;;9.93;98.32;101828.09;5012503;28;20055;-66
2023/10/17 10:50:34;;;;;;;19.58;6.75;;;;;;;9.98;100.00;101819.78;5012312;28;20449;-66
2023/10/17 10:53:01;;;;;;;18.70;6.82;;;;;;;10.04;100.00;101826.16;5012230;28;20038;-66
2023/10/17 10:55:27;;;;;;;18.92;6.63;;;;;;;10.07;96.08;101819.22;5012011;28;20080;-67
2023/10/17 10:57:53;;;;;;;18.05;6.45;;;;;;;10.06;95.91;101810.13;4994046;28;20489;-66
2023/10/17 11:00:19;;;;;;;18.60;5.85;;;;;;;10.11;97.90;101799.03;5011895;28;20046;-68
2023/10/17 11:02:44;;;;;;;18.42;6.40;;;;;;;10.17;98.08;101799.03;5011938;28;20188;-68
2023/10/17 11:05:13;;;;;;;18.25;6.07;;;;;;;10.21;99.63;101795.44;5012045;28;20030;-67
2023/10/17 11:07:38;;;;;;;17.30;5.75;;;;;;;10.25;97.36;101793.75;5012027;28;20216;-67
2023/10/17 11:10:14;;;;;;;19.08;6.53;;;;;;;10.31;98.65;101802.84;5012022;28;20165;-67
2023/10/17 11:12:40;;;;;;;19.80;6.45;;;;;;;10.35;97.76;101790.13;5011934;28;20492;-67
2023/10/17 11:15:11;;;;;;;17.80;5.80;;;;;;;10.38;95.76;101795.16;4993882;28;20175;-67
2023/10/17 11:17:38;;;;;;;17.05;5.55;;;;;;;10.38;92.86;101788.78;5011272;28;20084;-67
2023/10/17 11:20:13;;;;;;;17.52;5.57;;;;;;;10.35;92.50;101779.06;5011856;28;20040;-68
2023/10/17 11:22:40;;;;;;;18.30;5.78;;;;;;;10.35;94.34;101776.31;5011802;28;20057;-68
2023/10/17 11:25:08;;;;;;;17.83;6.13;;;;;;;10.41;93.30;101779.91;5011510;28;20038;-67
2023/10/17 11:27:34;;;;;;;17.02;5.30;;;;;;;10.41;93.53;101768.84;5011388;28;20040;-66
2023/10/17 11:29:59;;;;;;;17.38;5.50;;;;;;;10.44;92.44;101765.50;5011463;28;20358;-66
2023/10/17 11:32:26;;;;;;;19.05;6.03;;;;;;;10.46;91.12;101763.28;5011365;28;20042;-67
2023/10/17 11:35:05;;;;;;;19.08;5.68;;;;;;;10.55;92.81;101764.34;5011394;28;20038;-67
2023/10/17 11:37:34;;;;;;;17.83;5.22;;;;;;;10.60;91.64;101761.59;5011020;28;20528;-67
2023/10/17 11:40:17;;;;;;;15.40;4.72;;;;;;;10.66;89.29;101758.78;5010862;28;20596;-66
2023/10/17 11:42:42;;;;;;;16.48;4.85;;;;;;;10.68;88.96;101757.38;5011188;28;20030;-69
2023/10/17 11:45:25;;;;;;;15.40;5.13;;;;;;;10.72;89.78;101758.47;5010984;28;20040;-66
2023/10/17 11:47:51;;;;;;;16.75;5.45;;;;;;;10.82;91.42;101751.22;5011183;28;20102;-67
2023/10/17 11:50:31;;;;;;;13.00;4.70;;;;;;;10.89;90.36;101758.09;5010523;28;20028;-67
2023/10/17 11:53:09;;;;;;;16.30;4.82;;;;;;;10.96;88.78;101757.78;5011291;28;20022;-67
2023/10/17 11:55:45;;;;;;;15.57;5.00;;;;;;;11.04;88.37;101764.66;5011363;28;20034;-68
2023/10/17 11:58:19;;;;;;;12.70;4.10;;;;;;;11.07;84.30;101748.28;5011257;28;20022;-67
2023/10/17 12:00:44;;;;;;;12.30;3.78;;;;;;;11.08;82.74;101757.44;5011537;28;20109;-67
2023/10/17 12:03:09;;;;;;;14.63;4.20;;;;;;;11.04;84.02;101746.13;4993421;28;20125;-67
2023/10/17 12:05:38;;;;;;;15.02;4.55;;;;;;;11.11;86.42;101742.19;5011222;28;20033;-66
2023/10/17 12:08:03;;;;;;;14.35;4.47;;;;;;;11.16;85.88;101744.91;5011314;28;20583;-68
2023/10/17 12:10:29;;;;;;;14.75;4.40;;;;;;;11.19;85.28;101749.88;5011100;28;20059;-66
2023/10/17 12:13:04;;;;;;;14.95;4.78;;;;;;;11.16;86.17;101750.44;5010970;28;20022;-67
2023/10/17 12:15:29;;;;;;;15.10;4.93;;;;;;;11.21;87.14;101755.97;5010865;28;20033;-67
2023/10/17 12:17:55;;;;;;;11.55;3.83;;;;;;;11.30;85.64;101748.69;5010480;28;20393;-67
2023/10/17 12:20:25;;;;;;;11.27;3.55;;;;;;;11.35;83.97;101754.19;5010614;28;20022;-67
2023/10/17 12:22:54;;;;;;;14.60;4.22;;;;;;;11.36;85.21;101741.16;5010663;28;20100;-67
2023/10/17 12:25:23;;;;;;;13.27;3.90;;;;;;;11.42;86.24;101723.38;5010635;28;20033;-68
2023/10/17 12:27:49;;;;;;;13.73;3.88;;;;;;;11.44;87.33;101723.06;5010154;28;20163;-68
2023/10/17 12:30:22;;;;;;;13.93;3.90;;;;;;;11.47;83.99;101714.19;5010904;28;20459;-67
2023/10/17 12:32:47;;;;;;;12.02;3.65;;;;;;;11.47;82.18;101701.19;5010960;28;20029;-67
2023/10/17 12:35:16;;;;;;;9.13;3.13;;;;;;;11.49;80.88;101689.78;5010606;28;20111;-67
2023/10/17 12:37:45;;;;;;;12.27;3.63;;;;;;;11.52;78.92;101694.75;5010692;28;20422;-68
2023/10/17 12:40:21;;;;;;;8.70;3.10;;;;;;;11.51;76.99;101685.59;5010329;28;20041;-68
2023/10/17 12:42:47;;;;;;;9.43;2.95;;;;;;;11.49;78.87;101678.72;5010675;28;20108;-67
2023/10/17 12:45:17;;;;;;;8.73;3.10;;;;;;;11.53;78.99;101675.06;5010140;28;20026;-67
2023/10/17 12:47:43;;;;;;;12.77;3.58;;;;;;;11.58;82.87;101665.88;5010438;28;20061;-67
2023/10/17 12:50:13;;;;;;;10.10;3.50;;;;;;;11.63;82.24;101645.59;5010424;28;20034;-68
2023/10/17 12:52:39;;;;;;;12.93;3.70;;;;;;;11.66;82.24;101639.47;5010296;28;20103;-67
2023/10/17 12:55:07;;;;;;;12.35;3.50;;;;;;;11.63;81.68;101634.50;5010514;28;20022;-67
2023/10/17 12:57:32;;;;;;;12.52;3.80;;;;;;;11.61;80.28;101639.50;5010617;28;20117;-67
2023/10/17 12:59:59;;;;;;;11.20;3.30;;;;;;;11.57;78.57;101638.47;5010171;28;20138;-67
2023/10/17 13:02:26;;;;;;;9.95;2.75;;;;;;;11.53;77.53;101638.19;5010018;28;20350;-67
2023/10/17 13:04:51;;;;;;;11.82;3.00;;;;;;;11.55;77.96;101639.59;5010029;28;20121;-67
2023/10/17 13:07:17;;;;;;;11.40;3.40;;;;;;;11.55;77.67;101636.81;5009801;28;20077;-66
2023/10/17 13:09:43;;;;;;;12.68;3.67;;;;;;;11.56;78.09;101643.16;5010251;28;20026;-66
2023/10/17 13:12:08;;;;;;;12.43;3.90;;;;;;;11.64;79.38;101641.72;5010286;28;20048;-67
2023/10/17 13:14:33;;;;;;;14.30;3.88;;;;;;;11.70;79.96;101643.28;5010272;28;20085;-67
2023/10/17 13:16:58;;;;;;;11.57;3.67;;;;;;;11.69;79.19;101641.63;5010086;28;20398;-67
2023/10/17 13:19:24;;;;;;;14.60;4.25;;;;;;;11.66;80.44;101637.50;5009885;28;20026;-67
2023/10/17 13:21:49;;;;;;;13.95;4.13;;;;;;;11.66;79.56;101634.75;5009541;28;20512;-67
2023/10/17 13:24:15;;;;;;;14.43;4.38;;;;;;;11.61;77.98;101629.28;5009702;28;20030;-67
2023/10/17 13:26:41;;;;;;;14.13;4.00;;;;;;;11.59;79.15;101627.88;5010007;28;20049;-67
2023/10/17 13:29:06;;;;;;;14.32;4.30;;;;;;;11.60;79.56;101632.31;5009996;28;20040;-67
2023/10/17 13:31:33;;;;;;;15.23;4.28;;;;;;;11.60;80.73;101626.78;5010095;28;20038;-67
2023/10/17 13:33:58;;;;;;;14.00;4.40;;;;;;;11.57;79.74;101630.16;5009928;28;20033;-67
2023/10/17 13:36:24;;;;;;;12.52;4.13;;;;;;;11.53;79.87;101627.97;5009508;28;20026;-67